Time;durP1;ratioP1;P1;durP2;ratioP2;P2;SDS_P1;SDS_P2;PMS_P1;PMS_P2;Temp;Humidity;BMP_temperature;BMP_pressure;BME280_temperature;BME280_humidity;BME280_pressure;Samples;Min_cycle;Max_cycle;Signal;HPM_P1;HPM_P2
2022/02/11 00:01:51;;;;;;;;;;;19.90;41.40;;;;;;5092370;28;19923;-64
2022/02/11 00:07:02;;;;;;;;;;;19.80;41.40;;;;;;5093748;28;20306;-64
2022/02/11 00:09:28;;;;;;;;;;;19.80;41.40;;;;;;5097152;28;20352;-63
2022/02/11 00:11:55;;;;;;;;;;;19.80;41.40;;;;;;5096935;28;19908;-64
2022/02/11 00:14:21;;;;;;;;;;;19.80;41.40;;;;;;5097255;28;19912;-64
2022/02/11 00:16:47;;;;;;;;;;;19.80;41.40;;;;;;5097223;28;19931;-64
2022/02/11 00:19:12;;;;;;;;;;;19.80;41.40;;;;;;5097209;28;19908;-63
2022/02/11 00:21:39;;;;;;;;;;;19.80;41.40;;;;;;5097466;28;19916;-64
2022/02/11 00:24:04;;;;;;;;;;;19.80;41.40;;;;;;5097076;28;19908;-63
2022/02/11 00:26:34;;;;;;;;;;;19.80;41.40;;;;;;5097483;28;20475;-63
2022/02/11 00:34:06;;;;;;;;;;;19.80;41.40;;;;;;5096808;28;20338;-63
2022/02/11 00:36:43;;;;;;;;;;;19.80;41.40;;;;;;5096918;28;20351;-64
2022/02/11 00:42:49;;;;;;;;;;;19.70;41.30;;;;;;5096882;28;20271;-64
2022/02/11 01:06:18;;;;;;;;;;;19.70;41.30;;;;;;5096722;28;20002;-63
2022/02/11 01:08:43;;;;;;;;;;;19.70;41.30;;;;;;5096241;28;20363;-63
2022/02/11 01:11:18;;;;;;;;;;;19.70;41.30;;;;;;5096411;28;19909;-63
2022/02/11 01:13:44;;;;;;;;;;;19.70;41.30;;;;;;5095767;28;19908;-64
2022/02/11 01:16:15;;;;;;;;;;;19.70;41.30;;;;;;5078127;28;20382;-63
2022/02/11 01:18:47;;;;;;;;;;;19.70;41.30;;;;;;5096317;28;19915;-64
2022/02/11 01:21:21;;;;;;;;;;;19.60;41.30;;;;;;5078004;28;20360;-64
2022/02/11 01:23:59;;;;;;;;;;;19.70;41.30;;;;;;5096535;28;19955;-64
2022/02/11 01:31:46;;;;;;;;;;;19.60;41.30;;;;;;5096611;28;19933;-63
2022/02/11 01:34:34;;;;;;;;;;;19.60;41.20;;;;;;5095598;28;19915;-63
2022/02/11 01:37:25;;;;;;;;;;;19.60;41.20;;;;;;5096155;28;19991;-64
2022/02/11 01:45:09;;;;;;;;;;;19.60;41.20;;;;;;5096433;28;20358;-64
2022/02/11 01:51:01;;;;;;;;;;;19.60;41.20;;;;;;5054835;28;20327;-63
2022/02/11 01:53:36;;;;;;;;;;;19.60;41.20;;;;;;5054083;28;19909;-64
2022/02/11 01:56:11;;;;;;;;;;;19.60;41.20;;;;;;5081757;28;19912;-64
2022/02/11 02:10:11;;;;;;;;;;;19.50;41.30;;;;;;5095972;28;19931;-64
2022/02/11 02:25:32;;;;;;;;;;;19.50;41.20;;;;;;5096217;28;20031;-64
2022/02/11 02:33:57;;;;;;;;;;;19.50;41.10;;;;;;4994360;28;19910;-65
2022/02/11 02:57:50;;;;;;;;;;;19.50;41.10;;;;;;5094238;28;20279;-64
2022/02/11 03:00:52;;;;;;;;;;;19.50;41.10;;;;;;5093499;28;19916;-64
2022/02/11 03:50:02;;;;;;;;;;;19.30;40.90;;;;;;5097209;28;19970;-63
2022/02/11 03:58:22;;;;;;;;;;;19.40;40.90;;;;;;5096886;28;19954;-64
2022/02/11 04:23:07;;;;;;;;;;;19.30;40.90;;;;;;5096695;28;19931;-64
2022/02/11 04:55:26;;;;;;;;;;;19.30;40.80;;;;;;5096062;28;19961;-64
2022/02/11 05:00:38;;;;;;;;;;;19.20;40.80;;;;;;5095543;28;19943;-63
2022/02/11 05:03:04;;;;;;;;;;;19.20;40.80;;;;;;5095672;28;19912;-64
2022/02/11 05:05:30;;;;;;;;;;;19.20;40.80;;;;;;5077566;28;20007;-63
2022/02/11 05:07:55;;;;;;;;;;;19.30;40.80;;;;;;5077459;28;19961;-63
2022/02/11 05:10:21;;;;;;;;;;;19.20;40.80;;;;;;5095504;28;20279;-64
2022/02/11 05:12:47;;;;;;;;;;;19.20;40.80;;;;;;5095411;28;19908;-64
2022/02/11 05:15:13;;;;;;;;;;;19.30;40.80;;;;;;5095427;28;19915;-64
2022/02/11 05:17:39;;;;;;;;;;;19.30;40.70;;;;;;5095403;28;19908;-64
2022/02/11 05:20:05;;;;;;;;;;;19.30;40.70;;;;;;5095403;28;19916;-64
2022/02/11 05:22:30;;;;;;;;;;;19.30;40.70;;;;;;5095169;28;19909;-64
2022/02/11 05:24:56;;;;;;;;;;;19.30;40.60;;;;;;5076950;28;19953;-64
2022/02/11 05:27:21;;;;;;;;;;;19.30;40.60;;;;;;5094986;28;19912;-64
2022/02/11 05:29:47;;;;;;;;;;;19.40;40.60;;;;;;5076955;28;19998;-64
2022/02/11 05:32:12;;;;;;;;;;;19.40;40.50;;;;;;5095094;28;19924;-64
2022/02/11 05:34:37;;;;;;;;;;;19.40;40.50;;;;;;5094979;28;19908;-64
2022/02/11 05:37:03;;;;;;;;;;;19.40;40.50;;;;;;5076715;28;19930;-63
2022/02/11 05:39:29;;;;;;;;;;;19.50;40.40;;;;;;5095030;28;20309;-64
2022/02/11 05:41:54;;;;;;;;;;;19.50;40.50;;;;;;5076624;28;19908;-64
2022/02/11 05:44:19;;;;;;;;;;;19.50;40.40;;;;;;5094699;28;19952;-64
2022/02/11 05:46:45;;;;;;;;;;;19.50;40.40;;;;;;5094799;28;19931;-64
2022/02/11 05:49:10;;;;;;;;;;;19.50;40.30;;;;;;5094471;28;19923;-63
2022/02/11 05:51:36;;;;;;;;;;;19.50;40.40;;;;;;5076244;28;19908;-64
2022/02/11 05:54:02;;;;;;;;;;;19.50;40.30;;;;;;5094535;28;20287;-64
2022/02/11 05:56:27;;;;;;;;;;;19.50;40.40;;;;;;5076210;28;19962;-64
2022/02/11 05:58:52;;;;;;;;;;;19.50;40.30;;;;;;5094769;28;19954;-64
2022/02/11 06:01:18;;;;;;;;;;;19.50;40.30;;;;;;5094245;28;19986;-64
2022/02/11 06:03:43;;;;;;;;;;;19.50;40.30;;;;;;5076218;28;19915;-64
2022/02/11 06:06:09;;;;;;;;;;;19.50;40.30;;;;;;5093393;28;19931;-64
2022/02/11 06:08:34;;;;;;;;;;;19.60;40.20;;;;;;5094264;28;19915;-64
2022/02/11 06:11:00;;;;;;;;;;;19.50;40.20;;;;;;5075949;28;19908;-64
2022/02/11 06:13:25;;;;;;;;;;;19.60;40.20;;;;;;5094151;28;20275;-65
2022/02/11 06:15:51;;;;;;;;;;;19.60;40.20;;;;;;5094438;28;20256;-63
2022/02/11 06:18:16;;;;;;;;;;;19.60;40.20;;;;;;5094082;28;20379;-64
2022/02/11 06:20:41;;;;;;;;;;;19.60;40.20;;;;;;5094015;28;19923;-64
2022/02/11 06:23:08;;;;;;;;;;;19.60;40.20;;;;;;5094446;28;19950;-64
2022/02/11 06:25:34;;;;;;;;;;;19.70;40.20;;;;;;5094179;28;19956;-64
2022/02/11 06:27:59;;;;;;;;;;;19.60;40.20;;;;;;5094060;28;19908;-64
2022/02/11 06:30:26;;;;;;;;;;;19.60;40.20;;;;;;5094033;28;19909;-64
2022/02/11 06:32:52;;;;;;;;;;;19.60;40.20;;;;;;5075913;28;20425;-64
2022/02/11 06:35:18;;;;;;;;;;;19.60;40.20;;;;;;5094293;28;19908;-65
2022/02/11 06:37:48;;;;;;;;;;;19.70;40.20;;;;;;5093886;28;20441;-63
2022/02/11 06:40:14;;;;;;;;;;;19.70;40.20;;;;;;5093861;28;20329;-64
2022/02/11 06:42:40;;;;;;;;;;;19.70;40.20;;;;;;5093373;28;19912;-63
2022/02/11 06:45:06;;;;;;;;;;;19.70;40.20;;;;;;5093526;28;20340;-64
2022/02/11 06:47:32;;;;;;;;;;;19.70;40.20;;;;;;5093547;28;19919;-64
2022/02/11 06:49:57;;;;;;;;;;;19.70;40.20;;;;;;5093313;28;19908;-64
2022/02/11 06:52:23;;;;;;;;;;;19.70;40.20;;;;;;5093247;28;19915;-64
2022/02/11 06:54:48;;;;;;;;;;;19.70;40.20;;;;;;5093356;28;20290;-63
2022/02/11 06:57:14;;;;;;;;;;;19.70;40.20;;;;;;5075395;28;19948;-64
2022/02/11 06:59:39;;;;;;;;;;;19.70;40.20;;;;;;5093331;28;19943;-64
2022/02/11 07:02:12;;;;;;;;;;;19.70;40.10;;;;;;5093141;28;20392;-63
2022/02/11 07:04:37;;;;;;;;;;;19.80;40.20;;;;;;5093437;28;19991;-64
2022/02/11 07:07:03;;;;;;;;;;;19.70;40.10;;;;;;5075108;28;20422;-64
2022/02/11 07:09:28;;;;;;;;;;;19.70;40.10;;;;;;5093313;28;19908;-63
2022/02/11 07:11:54;;;;;;;;;;;19.70;40.10;;;;;;5093280;28;19908;-64
2022/02/11 07:14:19;;;;;;;;;;;19.70;40.10;;;;;;5093246;28;19949;-64
2022/02/11 07:16:47;;;;;;;;;;;19.70;40.10;;;;;;5094245;28;19916;-64
2022/02/11 07:19:13;;;;;;;;;;;19.70;40.00;;;;;;5097594;28;20367;-64
2022/02/11 07:21:40;;;;;;;;;;;19.80;40.10;;;;;;5097374;28;19916;-64
2022/02/11 07:24:06;;;;;;;;;;;19.80;40.00;;;;;;5062792;28;20314;-63
2022/02/11 07:26:31;;;;;;;;;;;19.80;40.00;;;;;;5079188;28;19962;-63
2022/02/11 07:28:57;;;;;;;;;;;19.80;40.00;;;;;;5097303;28;19912;-64
2022/02/11 07:31:22;;;;;;;;;;;19.70;40.10;;;;;;5097294;28;20003;-64
2022/02/11 07:33:48;;;;;;;;;;;19.70;40.00;;;;;;5097021;28;20317;-64
2022/02/11 07:36:14;;;;;;;;;;;19.80;40.00;;;;;;5097158;28;19909;-64
2022/02/11 07:38:40;;;;;;;;;;;19.80;40.00;;;;;;5097180;28;19911;-63
2022/02/11 07:41:05;;;;;;;;;;;19.80;40.00;;;;;;5078836;28;19926;-64
2022/02/11 07:43:31;;;;;;;;;;;19.80;40.00;;;;;;5097296;28;20283;-63
2022/02/11 07:45:56;;;;;;;;;;;19.80;40.00;;;;;;5078872;28;19916;-64
2022/02/11 07:48:22;;;;;;;;;;;19.80;39.90;;;;;;5097116;28;19912;-63
2022/02/11 07:50:47;;;;;;;;;;;19.80;40.00;;;;;;5096965;28;19912;-63
2022/02/11 07:53:16;;;;;;;;;;;19.90;39.90;;;;;;5096830;28;19914;-63
2022/02/11 07:55:41;;;;;;;;;;;19.80;39.90;;;;;;5097100;28;19908;-64
2022/02/11 07:58:07;;;;;;;;;;;19.80;39.90;;;;;;5096936;28;19930;-64
2022/02/11 08:00:32;;;;;;;;;;;19.80;39.90;;;;;;5096551;28;19921;-65
2022/02/11 08:02:58;;;;;;;;;;;19.80;39.90;;;;;;5078495;28;19912;-64
2022/02/11 08:05:23;;;;;;;;;;;19.90;39.90;;;;;;5096851;28;20280;-64
2022/02/11 08:07:49;;;;;;;;;;;19.80;39.90;;;;;;5078508;28;19908;-63
2022/02/11 08:10:14;;;;;;;;;;;19.90;39.90;;;;;;5078468;28;19915;-64
2022/02/11 08:12:40;;;;;;;;;;;19.80;39.90;;;;;;5096891;28;19916;-65
2022/02/11 08:15:06;;;;;;;;;;;19.90;39.90;;;;;;5096619;28;19974;-63
2022/02/11 08:17:31;;;;;;;;;;;19.90;39.80;;;;;;5096507;28;19919;-63
2022/02/11 08:19:57;;;;;;;;;;;19.80;39.90;;;;;;5096338;28;20276;-63
2022/02/11 08:22:22;;;;;;;;;;;19.90;39.90;;;;;;5096224;28;20390;-64
2022/02/11 08:24:47;;;;;;;;;;;19.90;39.90;;;;;;5078166;28;19953;-64
2022/02/11 08:27:14;;;;;;;;;;;19.90;39.90;;;;;;5078172;28;20019;-64
2022/02/11 08:29:40;;;;;;;;;;;19.90;39.90;;;;;;5095390;28;19912;-64
2022/02/11 08:32:06;;;;;;;;;;;19.90;39.90;;;;;;5096347;28;19908;-64
2022/02/11 08:34:31;;;;;;;;;;;19.90;39.90;;;;;;5096149;28;20425;-63
2022/02/11 08:36:57;;;;;;;;;;;19.90;39.90;;;;;;5096099;28;19929;-64
2022/02/11 08:39:22;;;;;;;;;;;19.90;39.80;;;;;;5096068;28;19962;-63
2022/02/11 08:41:48;;;;;;;;;;;19.80;39.80;;;;;;5095715;28;19959;-64
2022/02/11 08:44:14;;;;;;;;;;;19.90;39.90;;;;;;5096115;28;20343;-64
2022/02/11 08:46:39;;;;;;;;;;;19.90;39.80;;;;;;5096147;28;19999;-63
2022/02/11 08:49:04;;;;;;;;;;;19.90;39.80;;;;;;5095946;28;20359;-64
2022/02/11 08:51:31;;;;;;;;;;;19.90;39.80;;;;;;5095611;28;19978;-63
2022/02/11 08:53:57;;;;;;;;;;;19.90;39.70;;;;;;5095839;28;19912;-64
2022/02/11 08:56:22;;;;;;;;;;;19.90;39.80;;;;;;5095944;28;20344;-64
2022/02/11 08:58:48;;;;;;;;;;;19.90;39.80;;;;;;5095703;28;19999;-63
2022/02/11 09:01:14;;;;;;;;;;;19.90;39.80;;;;;;5095439;28;20003;-63
2022/02/11 09:03:42;;;;;;;;;;;19.90;39.80;;;;;;5095560;28;19974;-63
2022/02/11 09:06:08;;;;;;;;;;;19.90;39.80;;;;;;5095407;28;20356;-63
2022/02/11 09:08:34;;;;;;;;;;;19.90;39.70;;;;;;5095429;28;19923;-63
2022/02/11 09:11:00;;;;;;;;;;;20.00;39.70;;;;;;5095457;28;19999;-64
2022/02/11 09:13:27;;;;;;;;;;;19.90;39.70;;;;;;5095622;28;19993;-64
2022/02/11 09:15:53;;;;;;;;;;;20.00;39.70;;;;;;5095327;28;19919;-64
2022/02/11 09:18:19;;;;;;;;;;;20.00;39.70;;;;;;5095287;28;19943;-64
2022/02/11 09:20:45;;;;;;;;;;;20.00;39.70;;;;;;5076814;28;19942;-63
2022/02/11 09:23:10;;;;;;;;;;;20.00;39.60;;;;;;5095106;28;19965;-64
2022/02/11 09:25:36;;;;;;;;;;;20.00;39.60;;;;;;5095647;28;19954;-64
2022/02/11 09:28:01;;;;;;;;;;;20.00;39.60;;;;;;5094912;28;19908;-64
2022/02/11 09:30:26;;;;;;;;;;;20.00;39.60;;;;;;5095028;28;19988;-63
2022/02/11 09:32:52;;;;;;;;;;;20.00;39.60;;;;;;5094592;28;20007;-64
2022/02/11 09:35:19;;;;;;;;;;;20.00;39.60;;;;;;5094627;28;19908;-63
2022/02/11 09:37:44;;;;;;;;;;;20.00;39.50;;;;;;5094836;28;19973;-64
2022/02/11 09:40:11;;;;;;;;;;;20.00;39.60;;;;;;5094750;28;20328;-63
2022/02/11 09:42:38;;;;;;;;;;;20.00;39.50;;;;;;5094805;28;19999;-64
2022/02/11 09:45:06;;;;;;;;;;;20.00;39.40;;;;;;5076652;28;19915;-64
2022/02/11 09:47:32;;;;;;;;;;;20.00;39.40;;;;;;5094747;28;20414;-64
2022/02/11 09:49:57;;;;;;;;;;;20.00;39.40;;;;;;5094760;28;19908;-64
2022/02/11 09:52:23;;;;;;;;;;;20.00;39.40;;;;;;5094498;28;20282;-64
2022/02/11 09:54:48;;;;;;;;;;;20.00;39.30;;;;;;5094479;28;19908;-64
2022/02/11 09:57:19;;;;;;;;;;;20.00;39.40;;;;;;5094123;28;19908;-64
2022/02/11 09:59:45;;;;;;;;;;;20.10;39.20;;;;;;5094378;28;19908;-64
2022/02/11 10:02:13;;;;;;;;;;;20.10;39.20;;;;;;5094347;28;19926;-64
2022/02/11 10:04:39;;;;;;;;;;;20.10;39.20;;;;;;5094338;28;19908;-64
2022/02/11 10:07:04;;;;;;;;;;;20.10;39.00;;;;;;5094370;28;19908;-64
2022/02/11 10:09:30;;;;;;;;;;;20.10;38.90;;;;;;5094225;28;20421;-64
2022/02/11 10:11:55;;;;;;;;;;;20.10;39.00;;;;;;5075964;28;20352;-64
2022/02/11 10:14:21;;;;;;;;;;;20.10;39.10;;;;;;5093906;28;19930;-64
2022/02/11 10:16:52;;;;;;;;;;;20.20;38.90;;;;;;5094155;28;19931;-64
2022/02/11 10:19:55;;;;;;;;;;;20.20;39.20;;;;;;5093956;28;20007;-64
2022/02/11 10:22:21;;;;;;;;;;;20.20;39.10;;;;;;5051937;28;19916;-65
2022/02/11 10:24:48;;;;;;;;;;;20.20;39.20;;;;;;5093921;28;20367;-65
2022/02/11 10:27:21;;;;;;;;;;;20.10;39.30;;;;;;5093989;28;20020;-64
2022/02/11 10:29:47;;;;;;;;;;;20.10;39.40;;;;;;5075648;28;20256;-64
2022/02/11 10:32:12;;;;;;;;;;;20.10;39.10;;;;;;5093833;28;20091;-64
2022/02/11 10:34:41;;;;;;;;;;;20.10;39.10;;;;;;5093785;28;19908;-64
2022/02/11 10:37:08;;;;;;;;;;;20.10;39.10;;;;;;5093653;28;19908;-65
2022/02/11 10:39:35;;;;;;;;;;;20.10;39.00;;;;;;5075295;28;19909;-64
2022/02/11 10:42:07;;;;;;;;;;;20.00;39.10;;;;;;5094065;28;19970;-64
2022/02/11 10:44:34;;;;;;;;;;;20.00;39.20;;;;;;5093682;28;19912;-64
2022/02/11 10:47:17;;;;;;;;;;;20.00;39.30;;;;;;5093596;28;20348;-64
2022/02/11 10:49:43;;;;;;;;;;;20.00;39.30;;;;;;5075523;28;19908;-65
2022/02/11 10:52:21;;;;;;;;;;;19.90;39.40;;;;;;5093322;28;19908;-64
2022/02/11 10:54:51;;;;;;;;;;;20.00;39.40;;;;;;5093753;28;19908;-64
2022/02/11 10:57:20;;;;;;;;;;;19.90;39.40;;;;;;5093452;28;20301;-65
2022/02/11 10:59:46;;;;;;;;;;;19.90;39.40;;;;;;5075240;28;20023;-64
2022/02/11 11:02:18;;;;;;;;;;;19.90;39.40;;;;;;5093157;28;20430;-64
2022/02/11 11:04:47;;;;;;;;;;;19.90;39.40;;;;;;5093286;28;20006;-64
2022/02/11 11:07:14;;;;;;;;;;;19.90;39.40;;;;;;5093223;28;19916;-64
2022/02/11 11:09:45;;;;;;;;;;;20.00;39.40;;;;;;5093343;28;20378;-64
2022/02/11 11:12:13;;;;;;;;;;;19.90;39.30;;;;;;5093405;28;19914;-64
2022/02/11 11:14:40;;;;;;;;;;;19.90;39.30;;;;;;5093275;28;19912;-64
2022/02/11 11:17:05;;;;;;;;;;;19.90;39.10;;;;;;5093137;28;19962;-64
2022/02/11 11:19:32;;;;;;;;;;;20.00;39.00;;;;;;5093077;28;20380;-64
2022/02/11 11:22:14;;;;;;;;;;;20.00;38.90;;;;;;5093216;28;19943;-64
2022/02/11 11:24:39;;;;;;;;;;;20.00;39.00;;;;;;5093394;28;19912;-64
2022/02/11 11:27:05;;;;;;;;;;;20.00;39.10;;;;;;5093602;28;20420;-65
2022/02/11 11:29:30;;;;;;;;;;;20.00;39.00;;;;;;5075101;28;19966;-65
2022/02/11 11:32:00;;;;;;;;;;;20.00;39.10;;;;;;5092981;28;19908;-64
2022/02/11 11:34:27;;;;;;;;;;;20.00;38.90;;;;;;5092875;28;19908;-64
2022/02/11 11:36:54;;;;;;;;;;;20.10;39.00;;;;;;5092906;28;20027;-65
2022/02/11 11:39:20;;;;;;;;;;;20.10;39.00;;;;;;5093004;28;20374;-65
2022/02/11 11:41:58;;;;;;;;;;;20.10;38.90;;;;;;5092909;28;20006;-64
2022/02/11 11:44:27;;;;;;;;;;;20.10;38.80;;;;;;5074688;28;20355;-63
2022/02/11 11:46:53;;;;;;;;;;;20.10;38.90;;;;;;5092943;28;20449;-64
2022/02/11 11:49:25;;;;;;;;;;;20.20;38.80;;;;;;5093149;28;19954;-65
2022/02/11 11:51:50;;;;;;;;;;;20.20;38.30;;;;;;5092889;28;20403;-64
2022/02/11 11:54:16;;;;;;;;;;;20.20;38.60;;;;;;5092960;28;19962;-64
2022/02/11 11:56:42;;;;;;;;;;;20.20;38.70;;;;;;5092918;28;20006;-64
2022/02/11 11:59:14;;;;;;;;;;;20.20;38.70;;;;;;5074744;28;19908;-65
2022/02/11 12:01:58;;;;;;;;;;;20.20;38.70;;;;;;5092681;28;20375;-64
2022/02/11 12:04:28;;;;;;;;;;;20.20;38.80;;;;;;5096482;28;19999;-64
2022/02/11 12:07:05;;;;;;;;;;;20.20;38.80;;;;;;5096721;28;19908;-64
2022/02/11 12:09:31;;;;;;;;;;;20.20;38.50;;;;;;5078411;28;20003;-64
2022/02/11 12:11:57;;;;;;;;;;;20.20;38.60;;;;;;5096570;28;19942;-65
2022/02/11 12:14:23;;;;;;;;;;;20.30;38.60;;;;;;5096533;28;19998;-64
2022/02/11 12:16:49;;;;;;;;;;;20.30;38.50;;;;;;5096405;28;19909;-64
2022/02/11 12:19:15;;;;;;;;;;;20.20;38.50;;;;;;5096449;28;19915;-64
2022/02/11 12:21:40;;;;;;;;;;;20.30;38.50;;;;;;5096372;28;19924;-65
2022/02/11 12:29:35;;;;;;;;;;;20.20;38.60;;;;;;5096470;28;19934;-65
2022/02/11 12:32:01;;;;;;;;;;;20.20;38.60;;;;;;5096176;28;19908;-64
2022/02/11 12:34:26;;;;;;;;;;;20.20;38.50;;;;;;5096291;28;19947;-64
2022/02/11 12:36:52;;;;;;;;;;;20.20;38.50;;;;;;5096140;28;19908;-65
2022/02/11 12:39:17;;;;;;;;;;;20.20;38.50;;;;;;5096084;28;19918;-64
2022/02/11 12:41:46;;;;;;;;;;;20.20;38.50;;;;;;5096014;28;19923;-64
2022/02/11 12:44:25;;;;;;;;;;;20.20;38.60;;;;;;5095901;28;19948;-64
2022/02/11 12:46:51;;;;;;;;;;;20.20;38.60;;;;;;5096018;28;19908;-64
2022/02/11 12:49:17;;;;;;;;;;;20.20;38.60;;;;;;5077675;28;20009;-64
2022/02/11 12:51:49;;;;;;;;;;;20.20;38.60;;;;;;5095812;28;20387;-64
2022/02/11 12:54:14;;;;;;;;;;;20.20;38.60;;;;;;5095876;28;20003;-65
2022/02/11 12:56:40;;;;;;;;;;;20.10;38.50;;;;;;5077609;28;20000;-64
2022/02/11 12:59:08;;;;;;;;;;;20.10;38.50;;;;;;5095569;28;19961;-65
2022/02/11 13:01:34;;;;;;;;;;;20.20;38.40;;;;;;5095224;28;20304;-64
2022/02/11 13:04:00;;;;;;;;;;;20.20;38.40;;;;;;5095534;28;19916;-64
2022/02/11 13:06:26;;;;;;;;;;;20.20;38.50;;;;;;5077300;28;20352;-65
2022/02/11 13:09:01;;;;;;;;;;;20.10;38.50;;;;;;5095865;28;19915;-64
2022/02/11 13:11:27;;;;;;;;;;;20.10;38.40;;;;;;5095518;28;20382;-64
2022/02/11 13:14:06;;;;;;;;;;;20.10;38.00;;;;;;5077061;28;19912;-64
2022/02/11 13:16:35;;;;;;;;;;;20.10;38.20;;;;;;5095283;28;19919;-65
2022/02/11 13:19:13;;;;;;;;;;;20.10;38.10;;;;;;5095367;28;19934;-64
2022/02/11 13:21:39;;;;;;;;;;;20.10;38.20;;;;;;5095246;28;19924;-64
2022/02/11 13:24:05;;;;;;;;;;;20.10;38.00;;;;;;5095345;28;19908;-65
2022/02/11 13:26:31;;;;;;;;;;;20.10;38.10;;;;;;5095110;28;20391;-65
2022/02/11 13:28:57;;;;;;;;;;;20.10;38.30;;;;;;5095201;28;19908;-64
2022/02/11 13:31:23;;;;;;;;;;;20.10;38.30;;;;;;5076991;28;20114;-64
2022/02/11 13:34:01;;;;;;;;;;;20.10;38.20;;;;;;5095223;28;19912;-64
2022/02/11 13:36:26;;;;;;;;;;;20.10;38.30;;;;;;5095016;28;19912;-64
2022/02/11 13:38:52;;;;;;;;;;;20.10;38.20;;;;;;5094963;28;19912;-64
2022/02/11 13:41:25;;;;;;;;;;;20.10;38.20;;;;;;5094753;28;19939;-64
2022/02/11 13:43:54;;;;;;;;;;;20.10;38.30;;;;;;5094935;28;19908;-64
2022/02/11 13:46:23;;;;;;;;;;;20.10;38.10;;;;;;5094978;28;19908;-64
2022/02/11 13:48:52;;;;;;;;;;;20.10;38.20;;;;;;5094783;28;19909;-64
2022/02/11 13:51:17;;;;;;;;;;;20.10;38.20;;;;;;5094806;28;19930;-64
2022/02/11 13:53:44;;;;;;;;;;;20.10;38.20;;;;;;5094492;28;20290;-64
2022/02/11 13:56:14;;;;;;;;;;;20.10;38.10;;;;;;5094719;28;19950;-64
2022/02/11 13:58:59;;;;;;;;;;;20.10;38.20;;;;;;5076450;28;19908;-64
2022/02/11 14:01:26;;;;;;;;;;;20.10;38.20;;;;;;5094235;28;19926;-64
2022/02/11 14:03:56;;;;;;;;;;;20.10;38.10;;;;;;5094398;28;20287;-64
2022/02/11 14:06:23;;;;;;;;;;;20.10;37.90;;;;;;5094198;28;20355;-64
2022/02/11 14:08:49;;;;;;;;;;;20.10;38.00;;;;;;5094142;28;19958;-64
2022/02/11 14:11:15;;;;;;;;;;;20.10;38.10;;;;;;5094351;28;19948;-64
2022/02/11 14:13:41;;;;;;;;;;;20.10;38.10;;;;;;5094220;28;19943;-64
2022/02/11 14:16:07;;;;;;;;;;;20.10;38.10;;;;;;5094123;28;20279;-64
2022/02/11 14:18:33;;;;;;;;;;;20.10;38.00;;;;;;5094165;28;19919;-64
2022/02/11 14:20:58;;;;;;;;;;;20.10;38.10;;;;;;5076053;28;19916;-64
2022/02/11 14:23:24;;;;;;;;;;;20.10;37.90;;;;;;5093892;28;19908;-64
2022/02/11 14:25:50;;;;;;;;;;;20.10;38.10;;;;;;5093591;28;19949;-64
2022/02/11 14:28:16;;;;;;;;;;;20.10;38.10;;;;;;5093980;28;19912;-64
2022/02/11 14:30:43;;;;;;;;;;;20.10;38.00;;;;;;5094040;28;19931;-65
2022/02/11 14:33:09;;;;;;;;;;;20.10;38.00;;;;;;5093823;28;19982;-64
2022/02/11 14:35:35;;;;;;;;;;;20.10;38.10;;;;;;5075665;28;19947;-64
2022/02/11 14:38:00;;;;;;;;;;;20.10;37.90;;;;;;5075668;28;20310;-64
2022/02/11 14:40:26;;;;;;;;;;;20.10;37.70;;;;;;5093799;28;20350;-64
2022/02/11 14:42:52;;;;;;;;;;;20.10;37.70;;;;;;5093855;28;19908;-64
2022/02/11 14:45:17;;;;;;;;;;;20.10;37.90;;;;;;5075602;28;19908;-64
2022/02/11 14:47:43;;;;;;;;;;;20.10;37.80;;;;;;5093746;28;19912;-64
2022/02/11 14:50:08;;;;;;;;;;;20.00;37.80;;;;;;5093612;28;19912;-64
2022/02/11 14:52:34;;;;;;;;;;;20.10;37.90;;;;;;5093664;28;20275;-64
2022/02/11 14:55:00;;;;;;;;;;;20.10;37.80;;;;;;5075355;28;19961;-64
2022/02/11 14:57:25;;;;;;;;;;;20.10;37.90;;;;;;5093512;28;19931;-64
2022/02/11 14:59:51;;;;;;;;;;;20.00;38.00;;;;;;5093679;28;19931;-64
2022/02/11 15:02:16;;;;;;;;;;;20.10;37.90;;;;;;5093410;28;19927;-64
2022/02/11 15:04:42;;;;;;;;;;;20.10;37.90;;;;;;5093469;28;20454;-64
2022/02/11 15:07:08;;;;;;;;;;;20.10;37.50;;;;;;5093566;28;19908;-64
2022/02/11 15:09:33;;;;;;;;;;;20.10;37.90;;;;;;5075585;28;19908;-64
2022/02/11 15:11:59;;;;;;;;;;;20.10;37.90;;;;;;5093131;28;19908;-64
2022/02/11 15:14:26;;;;;;;;;;;20.10;37.90;;;;;;5093189;28;19908;-64
2022/02/11 15:16:52;;;;;;;;;;;20.10;37.60;;;;;;5093183;28;19908;-63
2022/02/11 15:19:18;;;;;;;;;;;20.10;37.70;;;;;;5093238;28;19953;-63
2022/02/11 15:21:43;;;;;;;;;;;20.10;37.70;;;;;;5093392;28;19961;-64
2022/02/11 15:24:09;;;;;;;;;;;20.10;37.80;;;;;;5093300;28;19915;-63
2022/02/11 15:26:34;;;;;;;;;;;20.10;37.80;;;;;;5075263;28;20469;-63
2022/02/11 15:29:00;;;;;;;;;;;20.10;37.40;;;;;;5093431;28;20416;-63
2022/02/11 15:31:25;;;;;;;;;;;20.10;37.60;;;;;;5093170;28;19951;-63
2022/02/11 15:33:51;;;;;;;;;;;20.00;37.70;;;;;;5092941;28;20356;-63
2022/02/11 15:36:17;;;;;;;;;;;20.10;37.40;;;;;;5093037;28;20462;-63
2022/02/11 15:38:43;;;;;;;;;;;20.00;37.40;;;;;;5095753;28;19920;-63
2022/02/11 15:41:09;;;;;;;;;;;20.10;37.50;;;;;;5097411;28;19916;-63
2022/02/11 15:43:35;;;;;;;;;;;20.10;37.50;;;;;;5097239;28;20303;-63
2022/02/11 15:46:02;;;;;;;;;;;20.10;37.30;;;;;;5097247;28;19977;-63
2022/02/11 15:48:27;;;;;;;;;;;20.10;37.20;;;;;;5097268;28;19912;-63
2022/02/11 15:50:53;;;;;;;;;;;20.00;37.60;;;;;;5096831;28;19991;-63
2022/02/11 15:53:19;;;;;;;;;;;20.10;37.70;;;;;;5096910;28;19940;-62
2022/02/11 15:55:46;;;;;;;;;;;20.10;37.60;;;;;;5097100;28;19961;-63
2022/02/11 15:58:12;;;;;;;;;;;20.10;37.40;;;;;;5096833;28;19995;-63
2022/02/11 16:00:38;;;;;;;;;;;20.10;37.30;;;;;;5096727;28;20011;-63
2022/02/11 16:03:04;;;;;;;;;;;20.10;37.00;;;;;;5096766;28;19953;-63
2022/02/11 16:05:29;;;;;;;;;;;20.10;37.20;;;;;;5096760;28;19954;-63
2022/02/11 16:07:55;;;;;;;;;;;20.10;37.40;;;;;;5078304;28;19908;-62
2022/02/11 16:10:24;;;;;;;;;;;20.10;37.20;;;;;;5096718;28;19922;-63
2022/02/11 16:12:50;;;;;;;;;;;20.10;37.40;;;;;;5096504;28;20299;-63
2022/02/11 16:15:16;;;;;;;;;;;20.10;37.30;;;;;;5096413;28;19912;-63
2022/02/11 16:18:00;;;;;;;;;;;20.10;37.40;;;;;;5096482;28;20000;-63
2022/02/11 16:20:26;;;;;;;;;;;20.10;37.50;;;;;;5096084;28;19916;-62
2022/02/11 16:22:51;;;;;;;;;;;20.10;37.20;;;;;;5096032;28;19916;-64
2022/02/11 16:25:17;;;;;;;;;;;20.10;37.00;;;;;;5096243;28;19908;-63
2022/02/11 16:27:42;;;;;;;;;;;20.10;37.40;;;;;;5096497;28;19923;-63
2022/02/11 16:30:08;;;;;;;;;;;20.10;37.30;;;;;;5096182;28;19920;-64
2022/02/11 16:32:33;;;;;;;;;;;20.00;37.20;;;;;;5096367;28;19916;-64
2022/02/11 16:34:59;;;;;;;;;;;20.10;37.30;;;;;;5096200;28;20364;-63
2022/02/11 16:37:24;;;;;;;;;;;20.00;37.30;;;;;;5078031;28;19914;-64
2022/02/11 16:39:49;;;;;;;;;;;20.10;37.20;;;;;;5095950;28;19912;-63
2022/02/11 16:42:15;;;;;;;;;;;20.00;37.30;;;;;;5096027;28;19919;-64
2022/02/11 16:44:40;;;;;;;;;;;20.00;37.10;;;;;;5095809;28;19908;-64
2022/02/11 16:47:06;;;;;;;;;;;20.00;37.00;;;;;;5095954;28;19954;-63
2022/02/11 16:49:31;;;;;;;;;;;20.00;37.00;;;;;;5095195;28;19920;-63
2022/02/11 16:51:59;;;;;;;;;;;20.00;36.70;;;;;;5077634;28;19947;-63
2022/02/11 16:54:25;;;;;;;;;;;20.10;37.00;;;;;;5095539;28;19908;-62
2022/02/11 16:56:50;;;;;;;;;;;20.00;37.00;;;;;;5095446;28;19954;-63
2022/02/11 16:59:16;;;;;;;;;;;20.00;36.70;;;;;;5077351;28;19938;-62
2022/02/11 17:01:42;;;;;;;;;;;20.10;36.90;;;;;;5095173;28;19927;-63
2022/02/11 17:04:07;;;;;;;;;;;20.00;36.60;;;;;;5095372;28;19951;-63
2022/02/11 17:06:33;;;;;;;;;;;20.10;36.50;;;;;;5095713;28;19919;-63
2022/02/11 17:08:58;;;;;;;;;;;20.10;37.10;;;;;;5095447;28;20232;-65
2022/02/11 17:11:24;;;;;;;;;;;20.00;36.40;;;;;;5095422;28;19993;-64
2022/02/11 17:13:50;;;;;;;;;;;20.00;36.80;;;;;;5095424;28;19985;-63
2022/02/11 17:16:15;;;;;;;;;;;20.10;36.70;;;;;;5095337;28;19974;-63
2022/02/11 17:18:43;;;;;;;;;;;20.00;36.70;;;;;;5095749;28;20339;-63
2022/02/11 17:21:09;;;;;;;;;;;20.00;36.50;;;;;;5095635;28;19924;-64
2022/02/11 17:23:35;;;;;;;;;;;20.00;36.70;;;;;;5095356;28;19908;-64
2022/02/11 17:26:00;;;;;;;;;;;20.00;36.60;;;;;;5095189;28;19915;-64
2022/02/11 17:28:26;;;;;;;;;;;20.00;36.70;;;;;;5095098;28;19953;-65
2022/02/11 17:30:52;;;;;;;;;;;20.00;36.70;;;;;;5095398;28;19977;-64
2022/02/11 17:33:17;;;;;;;;;;;20.00;36.20;;;;;;5095007;28;20360;-64
2022/02/11 17:35:43;;;;;;;;;;;20.00;36.60;;;;;;5095328;28;19912;-65
2022/02/11 17:38:09;;;;;;;;;;;20.00;36.30;;;;;;5095267;28;19950;-65
2022/02/11 17:40:34;;;;;;;;;;;20.00;36.50;;;;;;5094873;28;19965;-65
2022/02/11 17:42:59;;;;;;;;;;;20.00;36.70;;;;;;5094914;28;20390;-65
2022/02/11 17:45:26;;;;;;;;;;;20.00;36.50;;;;;;5094836;28;19949;-62
2022/02/11 17:47:51;;;;;;;;;;;20.00;36.30;;;;;;5094838;28;19908;-63